Time;durP1;ratioP1;P1;durP2;ratioP2;P2;SDS_P1;SDS_P2;PMS_P1;PMS_P2;Temp;Humidity;BMP_temperature;BMP_pressure;BME280_temperature;BME280_humidity;BME280_pressure;Samples;Min_cycle;Max_cycle;Signal;HPM_P1;HPM_P2
2023/03/23 00:02:14;;;;;;;241.15;87.75;;;;;;;;;;5114831;28;20063;-77
2023/03/23 00:04:39;;;;;;;249.15;90.13;;;;;;;;;;5115383;28;20097;-78
2023/03/23 00:07:05;;;;;;;258.35;92.22;;;;;;;;;;5116551;28;20437;-76
2023/03/23 00:09:34;;;;;;;252.00;86.63;;;;;;;;;;5115807;28;20081;-78
2023/03/23 00:12:05;;;;;;;231.10;85.10;;;;;;;;;;5115096;28;20027;-78
2023/03/23 00:14:40;;;;;;;257.70;97.95;;;;;;;;;;5098681;28;20085;-77
2023/03/23 00:17:14;;;;;;;239.50;88.22;;;;;;;;;;5082660;28;20101;-77
2023/03/23 00:19:45;;;;;;;259.63;90.90;;;;;;;;;;5098413;28;20032;-78
2023/03/23 00:22:15;;;;;;;239.48;84.32;;;;;;;;;;5082890;28;20032;-78
2023/03/23 00:24:41;;;;;;;226.77;82.30;;;;;;;;;;5114464;28;20054;-77
2023/03/23 00:27:08;;;;;;;210.20;82.97;;;;;;;;;;5114999;28;20449;-77
2023/03/23 00:29:34;;;;;;;242.00;84.22;;;;;;;;;;5115002;28;20135;-78
2023/03/23 00:31:59;;;;;;;217.32;79.07;;;;;;;;;;5097592;28;20110;-78
2023/03/23 00:34:24;;;;;;;225.30;80.18;;;;;;;;;;5115659;28;20035;-78
2023/03/23 00:36:53;;;;;;;220.90;80.53;;;;;;;;;;5114506;28;20422;-79
2023/03/23 00:39:18;;;;;;;223.18;79.95;;;;;;;;;;5114143;28;20055;-78
2023/03/23 00:41:44;;;;;;;212.90;80.00;;;;;;;;;;5114495;28;20023;-78
2023/03/23 00:44:09;;;;;;;227.35;78.80;;;;;;;;;;5114721;28;20032;-77
2023/03/23 00:46:44;;;;;;;226.50;79.68;;;;;;;;;;5114219;28;20045;-78
2023/03/23 00:49:12;;;;;;;222.27;78.40;;;;;;;;;;5114828;28;20039;-78
2023/03/23 00:51:37;;;;;;;244.77;80.55;;;;;;;;;;5114285;28;20030;-78
2023/03/23 00:54:03;;;;;;;235.52;78.65;;;;;;;;;;5096931;28;20415;-78
2023/03/23 00:56:29;;;;;;;219.02;78.18;;;;;;;;;;5115028;28;20338;-77
2023/03/23 00:58:54;;;;;;;215.35;75.97;;;;;;;;;;5115679;28;20039;-78
2023/03/23 01:01:20;;;;;;;213.88;75.53;;;;;;;;;;5115163;28;20039;-77
2023/03/23 01:03:45;;;;;;;207.55;75.68;;;;;;;;;;5114117;28;20041;-78
2023/03/23 01:06:13;;;;;;;206.80;73.13;;;;;;;;;;5115214;28;20039;-78
2023/03/23 01:08:45;;;;;;;211.77;74.53;;;;;;;;;;5096910;28;20024;-78
2023/03/23 01:11:15;;;;;;;197.85;71.72;;;;;;;;;;5130792;27;20034;-78
2023/03/23 01:13:41;;;;;;;202.05;69.90;;;;;;;;;;5113451;28;20038;-78
2023/03/23 01:16:07;;;;;;;193.63;66.55;;;;;;;;;;5114036;28;20036;-78
2023/03/23 01:18:33;;;;;;;196.68;66.43;;;;;;;;;;5113629;28;20063;-77
2023/03/23 01:21:06;;;;;;;180.82;63.20;;;;;;;;;;5113647;28;20063;-77
2023/03/23 01:23:33;;;;;;;185.13;63.03;;;;;;;;;;5113923;28;20028;-78
2023/03/23 01:26:07;;;;;;;198.77;65.95;;;;;;;;;;5113861;28;20039;-78
2023/03/23 01:28:33;;;;;;;214.40;71.65;;;;;;;;;;5113610;28;20019;-78
2023/03/23 01:31:03;;;;;;;237.00;74.50;;;;;;;;;;5113712;28;20069;-78
2023/03/23 01:33:29;;;;;;;201.38;66.00;;;;;;;;;;5130878;27;20457;-78
2023/03/23 01:35:54;;;;;;;194.40;61.58;;;;;;;;;;5113260;28;20023;-78
2023/03/23 01:38:21;;;;;;;163.52;56.80;;;;;;;;;;5113383;28;20042;-77
2023/03/23 01:40:46;;;;;;;159.35;58.17;;;;;;;;;;5114458;28;20185;-77
2023/03/23 01:43:13;;;;;;;165.98;56.72;;;;;;;;;;5113562;28;20110;-78
2023/03/23 01:45:39;;;;;;;153.82;53.05;;;;;;;;;;5113302;28;20024;-78
2023/03/23 01:48:09;;;;;;;156.10;55.58;;;;;;;;;;5096212;28;20039;-79
2023/03/23 01:50:49;;;;;;;;;;;;;;;;;;5114538;28;20088;-77
2023/03/23 01:53:16;;;;;;;134.07;48.85;;;;;;;;;;5114787;28;19919;-77
2023/03/23 01:55:42;;;;;;;143.90;49.95;;;;;;;;;;5113323;28;20122;-77
2023/03/23 01:58:08;;;;;;;127.80;51.35;;;;;;;;;;5113310;28;20031;-78
2023/03/23 02:00:33;;;;;;;155.32;54.95;;;;;;;;;;5096463;28;20023;-78
2023/03/23 02:03:00;;;;;;;215.98;65.95;;;;;;;;;;5096204;28;20031;-78
2023/03/23 02:05:31;;;;;;;191.15;60.88;;;;;;;;;;5113133;28;20130;-75
2023/03/23 02:08:02;;;;;;;157.27;56.10;;;;;;;;;;5096208;28;20128;-78
2023/03/23 02:10:27;;;;;;;281.85;71.60;;;;;;;;;;5129776;27;20498;-76
2023/03/23 02:12:53;;;;;;;231.48;70.43;;;;;;;;;;5112994;28;20051;-79
2023/03/23 02:15:18;;;;;;;241.82;72.25;;;;;;;;;;5079948;28;20030;-76
2023/03/23 02:18:22;;;;;;;232.50;67.93;;;;;;;;;;5096517;28;20069;-78
2023/03/23 02:20:56;;;;;;;297.33;77.32;;;;;;;;;;5075984;28;20121;-78
2023/03/23 02:23:50;;;;;;;253.70;75.03;;;;;;;;;;5114239;28;20030;-78
2023/03/23 02:26:21;;;;;;;244.98;72.88;;;;;;;;;;5099081;28;20047;-77
2023/03/23 02:29:11;;;;;;;436.92;78.90;;;;;;;;;;5118284;28;20418;-77
2023/03/23 02:32:02;;;;;;;298.13;73.90;;;;;;;;;;5117475;28;20031;-78
2023/03/23 02:34:47;;;;;;;437.02;74.25;;;;;;;;;;5099534;28;20441;-76
2023/03/23 02:37:28;;;;;;;898.60;91.75;;;;;;;;;;5117067;28;20114;-78
2023/03/23 02:40:16;;;;;;;624.20;77.95;;;;;;;;;;5134297;27;20101;-78
2023/03/23 02:42:42;;;;;;;757.13;84.68;;;;;;;;;;5133811;27;20385;-78
2023/03/23 02:45:09;;;;;;;672.60;82.28;;;;;;;;;;5134131;27;20032;-78
2023/03/23 02:47:35;;;;;;;682.00;84.07;;;;;;;;;;5099638;28;20040;-78
2023/03/23 02:50:00;;;;;;;650.72;83.57;;;;;;;;;;5082791;28;20372;-78
2023/03/23 02:52:29;;;;;;;691.55;82.75;;;;;;;;;;5099426;28;20027;-78
2023/03/23 02:54:55;;;;;;;662.25;81.22;;;;;;;;;;5117088;28;20028;-79
2023/03/23 02:57:21;;;;;;;557.63;77.13;;;;;;;;;;5133470;27;20031;-78
2023/03/23 02:59:47;;;;;;;570.90;79.57;;;;;;;;;;5116530;28;20027;-78
2023/03/23 03:02:14;;;;;;;777.03;80.57;;;;;;;;;;5116510;28;20032;-77
2023/03/23 03:04:40;;;;;;;581.50;76.82;;;;;;;;;;5133343;27;20080;-76
2023/03/23 03:07:37;;;;;;;516.30;78.53;;;;;;;;;;5133443;27;20056;-77
2023/03/23 03:10:13;;;;;;;608.08;78.50;;;;;;;;;;5116522;28;20486;-75
2023/03/23 03:13:07;;;;;;;630.83;72.72;;;;;;;;;;5116503;28;20032;-75
2023/03/23 03:15:37;;;;;;;1035.63;79.93;;;;;;;;;;5116580;28;20052;-78
2023/03/23 03:18:11;;;;;;;726.58;74.30;;;;;;;;;;5133399;27;20019;-79
2023/03/23 03:20:38;;;;;;;500.73;69.00;;;;;;;;;;5115972;28;20063;-76
2023/03/23 03:23:04;;;;;;;559.88;67.43;;;;;;;;;;5116081;28;20071;-76
2023/03/23 03:25:29;;;;;;;360.52;64.40;;;;;;;;;;5115855;28;20106;-77
2023/03/23 03:27:54;;;;;;;200.45;56.45;;;;;;;;;;5082032;28;20031;-76
2023/03/23 03:30:23;;;;;;;197.30;54.78;;;;;;;;;;5098868;28;20073;-77
2023/03/23 03:32:50;;;;;;;199.95;55.85;;;;;;;;;;5132743;27;20033;-76
2023/03/23 03:35:16;;;;;;;198.05;55.13;;;;;;;;;;5133273;27;20106;-76
2023/03/23 03:37:42;;;;;;;211.15;55.35;;;;;;;;;;5114922;28;20031;-76
2023/03/23 03:40:11;;;;;;;184.32;51.72;;;;;;;;;;5098904;28;20103;-78
2023/03/23 03:42:38;;;;;;;206.38;52.72;;;;;;;;;;5116854;28;20023;-77
2023/03/23 03:45:04;;;;;;;198.00;53.42;;;;;;;;;;5115915;28;20019;-77
2023/03/23 03:47:29;;;;;;;186.55;53.28;;;;;;;;;;5115472;28;20435;-76
2023/03/23 03:49:55;;;;;;;186.93;54.20;;;;;;;;;;5115845;28;20031;-76
2023/03/23 03:52:20;;;;;;;177.00;49.35;;;;;;;;;;5116994;28;20119;-79
2023/03/23 03:54:46;;;;;;;202.48;48.20;;;;;;;;;;5115617;28;20051;-77
2023/03/23 03:57:12;;;;;;;189.40;46.90;;;;;;;;;;5115659;28;20020;-77
2023/03/23 03:59:37;;;;;;;184.13;44.13;;;;;;;;;;5116089;28;20026;-76
2023/03/23 04:02:03;;;;;;;214.18;46.35;;;;;;;;;;5115845;28;20407;-76
2023/03/23 04:04:29;;;;;;;297.75;48.35;;;;;;;;;;5116451;28;20066;-77
2023/03/23 04:06:54;;;;;;;404.90;52.13;;;;;;;;;;5115205;28;20038;-78
2023/03/23 04:09:21;;;;;;;347.48;50.88;;;;;;;;;;5115201;28;20027;-77
2023/03/23 04:11:46;;;;;;;307.25;53.03;;;;;;;;;;5098199;28;20046;-76
2023/03/23 04:14:12;;;;;;;416.10;55.50;;;;;;;;;;5149442;27;20110;-77
2023/03/23 04:16:37;;;;;;;393.85;58.40;;;;;;;;;;5097916;28;20039;-76
2023/03/23 04:19:03;;;;;;;401.08;60.35;;;;;;;;;;5115238;28;20024;-78
2023/03/23 04:21:29;;;;;;;397.52;62.15;;;;;;;;;;5098136;28;20027;-78
2023/03/23 04:23:58;;;;;;;395.73;59.78;;;;;;;;;;5116062;28;20031;-77
2023/03/23 04:26:25;;;;;;;339.43;58.43;;;;;;;;;;5131689;27;20028;-77
2023/03/23 04:28:51;;;;;;;387.42;57.63;;;;;;;;;;5132072;27;20266;-77
2023/03/23 04:31:17;;;;;;;322.17;60.00;;;;;;;;;;5131743;27;20036;-77
2023/03/23 04:33:43;;;;;;;417.17;59.30;;;;;;;;;;5115869;28;20036;-77
2023/03/23 04:36:08;;;;;;;339.75;58.28;;;;;;;;;;5097670;28;20077;-77
2023/03/23 04:38:34;;;;;;;434.27;75.05;;;;;;;;;;5097553;28;20429;-76
2023/03/23 04:41:01;;;;;;;418.05;67.57;;;;;;;;;;5115432;28;20096;-78
2023/03/23 04:43:28;;;;;;;467.17;68.88;;;;;;;;;;5114401;28;20459;-76
2023/03/23 04:46:01;;;;;;;479.35;67.57;;;;;;;;;;5080070;28;20027;-77
2023/03/23 04:48:29;;;;;;;398.17;67.50;;;;;;;;;;5098307;28;20080;-76
2023/03/23 04:50:55;;;;;;;344.65;66.03;;;;;;;;;;5114387;27;20434;-77
2023/03/23 04:53:21;;;;;;;461.08;67.68;;;;;;;;;;5114383;28;20055;-76
2023/03/23 04:55:47;;;;;;;436.77;64.22;;;;;;;;;;5115657;28;20342;-76
2023/03/23 04:58:14;;;;;;;343.73;65.45;;;;;;;;;;5114466;28;20028;-76
2023/03/23 05:00:40;;;;;;;334.63;61.50;;;;;;;;;;5147881;27;20019;-76
2023/03/23 05:03:07;;;;;;;403.17;65.15;;;;;;;;;;5079200;28;20357;-77
2023/03/23 05:05:34;;;;;;;295.77;63.63;;;;;;;;;;5115129;28;20430;-76
2023/03/23 05:08:00;;;;;;;307.80;63.42;;;;;;;;;;5131116;27;20441;-77
2023/03/23 05:10:26;;;;;;;262.60;64.25;;;;;;;;;;5131361;27;20030;-76
2023/03/23 05:12:53;;;;;;;346.80;59.80;;;;;;;;;;5112590;28;20027;-77
2023/03/23 05:15:18;;;;;;;292.40;60.88;;;;;;;;;;5111938;28;20030;-77
2023/03/23 05:17:43;;;;;;;308.65;59.22;;;;;;;;;;5114978;28;20529;-77
2023/03/23 05:20:11;;;;;;;336.70;61.17;;;;;;;;;;5113708;28;20461;-77
2023/03/23 05:22:38;;;;;;;304.10;60.08;;;;;;;;;;5130656;27;20031;-77
2023/03/23 05:25:04;;;;;;;368.95;61.60;;;;;;;;;;5113733;28;20072;-77
2023/03/23 05:27:30;;;;;;;288.75;61.53;;;;;;;;;;5096145;28;20059;-78
2023/03/23 05:29:58;;;;;;;298.60;59.35;;;;;;;;;;5113396;28;20057;-76
2023/03/23 05:32:29;;;;;;;251.57;58.92;;;;;;;;;;5096592;28;20036;-77
2023/03/23 05:35:00;;;;;;;329.35;63.53;;;;;;;;;;5113904;28;20402;-79
2023/03/23 05:37:28;;;;;;;360.95;64.90;;;;;;;;;;5113231;28;20072;-78
2023/03/23 05:39:55;;;;;;;316.05;64.63;;;;;;;;;;5099046;28;20078;-80
2023/03/23 05:42:25;;;;;;;348.88;64.95;;;;;;;;;;5115740;28;20337;-82
2023/03/23 05:44:50;;;;;;;;;;;;;;;;;;5111638;28;20564;-81
2023/03/23 05:47:16;;;;;;;315.60;57.88;;;;;;;;;;5111589;28;20022;-81
2023/03/23 05:49:43;;;;;;;417.02;60.63;;;;;;;;;;5112563;28;20116;-83
2023/03/23 05:52:08;;;;;;;313.90;57.60;;;;;;;;;;5111719;28;20073;-82
2023/03/23 05:54:44;;;;;;;254.77;56.88;;;;;;;;;;5111049;28;20019;-84
2023/03/23 05:57:22;;;;;;;254.25;59.42;;;;;;;;;;5120586;28;20038;-79
2023/03/23 05:59:53;;;;;;;219.30;62.90;;;;;;;;;;5102460;28;20097;-80
2023/03/23 06:02:19;;;;;;;226.88;63.63;;;;;;;;;;5106219;28;20027;-80
2023/03/23 06:04:48;;;;;;;241.35;63.30;;;;;;;;;;5110168;28;20027;-79
2023/03/23 06:07:20;;;;;;;252.95;64.88;;;;;;;;;;5102280;28;20040;-82
2023/03/23 06:10:19;;;;;;;216.32;62.63;;;;;;;;;;5106556;28;20047;-79
2023/03/23 06:12:50;;;;;;;229.70;62.25;;;;;;;;;;5108702;28;20122;-80
2023/03/23 06:15:16;;;;;;;242.60;62.58;;;;;;;;;;5109464;28;20107;-78
2023/03/23 06:17:46;;;;;;;204.50;61.33;;;;;;;;;;5102584;28;20130;-80
2023/03/23 06:20:12;;;;;;;245.45;61.83;;;;;;;;;;5111112;28;20073;-78
2023/03/23 06:23:11;;;;;;;196.73;56.75;;;;;;;;;;5108052;27;20421;-78
2023/03/23 06:25:37;;;;;;;228.02;55.50;;;;;;;;;;5104275;28;20059;-74
2023/03/23 06:28:03;;;;;;;230.75;53.88;;;;;;;;;;5116440;28;20048;-75
2023/03/23 06:30:30;;;;;;;148.05;49.95;;;;;;;;;;5105931;28;20032;-77
2023/03/23 06:32:55;;;;;;;201.88;48.15;;;;;;;;;;5101016;28;20025;-75
2023/03/23 06:35:21;;;;;;;247.30;50.50;;;;;;;;;;5095464;28;20400;-74
2023/03/23 06:37:51;;;;;;;148.07;49.58;;;;;;;;;;5104145;28;20035;-76
2023/03/23 06:40:18;;;;;;;164.57;47.63;;;;;;;;;;5111900;28;20042;-79
2023/03/23 06:42:52;;;;;;;240.95;47.97;;;;;;;;;;5109543;28;20035;-75
2023/03/23 06:45:19;;;;;;;174.77;44.15;;;;;;;;;;5107814;28;20101;-75
2023/03/23 06:47:48;;;;;;;235.43;43.38;;;;;;;;;;5108372;28;20035;-75
2023/03/23 06:50:15;;;;;;;220.30;44.42;;;;;;;;;;5107310;28;20028;-76
2023/03/23 06:52:41;;;;;;;175.13;44.10;;;;;;;;;;5109466;28;20028;-77
2023/03/23 06:55:08;;;;;;;180.57;44.03;;;;;;;;;;5110780;28;20373;-76
2023/03/23 06:57:38;;;;;;;265.02;45.65;;;;;;;;;;5109339;28;20027;-76
2023/03/23 07:00:13;;;;;;;;;;;;;;;;;;5102384;28;20040;-78
2023/03/23 07:02:41;;;;;;;142.90;43.95;;;;;;;;;;5091931;28;20338;-79
2023/03/23 07:05:09;;;;;;;128.43;44.08;;;;;;;;;;5103432;28;20028;-78
2023/03/23 07:07:46;;;;;;;139.98;42.50;;;;;;;;;;5108911;28;20382;-77
2023/03/23 07:10:11;;;;;;;98.60;41.20;;;;;;;;;;5108961;28;20036;-77
2023/03/23 07:12:37;;;;;;;124.07;40.38;;;;;;;;;;5109681;28;20027;-80
2023/03/23 07:15:04;;;;;;;133.60;41.83;;;;;;;;;;5112508;28;20035;-79
2023/03/23 07:17:29;;;;;;;124.07;42.78;;;;;;;;;;5112767;28;20027;-78
2023/03/23 07:19:56;;;;;;;311.92;42.42;;;;;;;;;;5103224;28;20389;-77
2023/03/23 07:22:21;;;;;;;130.98;41.78;;;;;;;;;;5105503;28;20019;-76
2023/03/23 07:24:50;;;;;;;112.80;42.38;;;;;;;;;;5111187;28;20039;-78
2023/03/23 07:27:16;;;;;;;90.28;41.65;;;;;;;;;;5109289;28;20043;-80
2023/03/23 07:29:44;;;;;;;98.25;42.50;;;;;;;;;;5139187;27;20035;-78
2023/03/23 07:32:10;;;;;;;89.97;43.10;;;;;;;;;;5092637;28;20023;-77
2023/03/23 07:34:39;;;;;;;97.78;42.38;;;;;;;;;;5106971;28;20024;-77
2023/03/23 07:37:04;;;;;;;87.28;41.70;;;;;;;;;;5115312;28;20070;-79
2023/03/23 07:39:30;;;;;;;96.72;44.80;;;;;;;;;;5113368;28;20435;-79
2023/03/23 07:41:56;;;;;;;89.13;42.50;;;;;;;;;;5113582;28;20118;-77
2023/03/23 07:44:25;;;;;;;86.50;40.92;;;;;;;;;;5113385;28;20034;-81
2023/03/23 07:46:50;;;;;;;91.75;42.05;;;;;;;;;;5113191;28;20037;-77
2023/03/23 07:49:17;;;;;;;91.90;42.45;;;;;;;;;;5092585;28;20044;-78
2023/03/23 07:51:42;;;;;;;97.35;46.05;;;;;;;;;;5111912;28;20452;-79
2023/03/23 07:54:08;;;;;;;99.55;44.35;;;;;;;;;;5104348;28;20038;-77
2023/03/23 07:56:35;;;;;;;103.63;46.20;;;;;;;;;;5111803;28;20070;-78
2023/03/23 07:59:01;;;;;;;94.65;44.30;;;;;;;;;;5113646;28;20020;-77
2023/03/23 08:01:26;;;;;;;99.25;45.38;;;;;;;;;;5114312;28;20016;-79
2023/03/23 08:03:54;;;;;;;99.80;46.55;;;;;;;;;;5111725;28;20016;-80
2023/03/23 08:06:21;;;;;;;98.55;44.78;;;;;;;;;;5112424;28;20319;-79
2023/03/23 08:08:52;;;;;;;107.75;47.35;;;;;;;;;;5111724;28;20345;-78
2023/03/23 08:11:19;;;;;;;103.20;47.30;;;;;;;;;;5110819;28;20486;-79
2023/03/23 08:13:46;;;;;;;116.47;46.33;;;;;;;;;;5108459;28;20417;-78
2023/03/23 08:16:11;;;;;;;104.78;45.88;;;;;;;;;;5109015;28;20031;-78
2023/03/23 08:18:38;;;;;;;117.25;46.95;;;;;;;;;;5107040;28;20511;-77
2023/03/23 08:21:05;;;;;;;108.45;46.33;;;;;;;;;;5109664;28;20024;-77
2023/03/23 08:23:31;;;;;;;104.20;46.47;;;;;;;;;;5103747;28;20023;-78
2023/03/23 08:26:03;;;;;;;103.75;46.95;;;;;;;;;;5108486;28;20599;-78
2023/03/23 08:28:28;;;;;;;100.40;46.55;;;;;;;;;;5109842;28;20092;-76
2023/03/23 08:30:54;;;;;;;95.60;44.72;;;;;;;;;;5111321;28;20027;-76
2023/03/23 08:33:21;;;;;;;99.75;47.70;;;;;;;;;;5111639;28;20050;-80
2023/03/23 08:35:56;;;;;;;103.95;47.58;;;;;;;;;;5095500;28;20028;-79
2023/03/23 08:38:23;;;;;;;105.15;46.58;;;;;;;;;;5143404;27;20393;-80
2023/03/23 08:40:52;;;;;;;99.35;47.22;;;;;;;;;;5109188;28;20047;-77
2023/03/23 08:43:18;;;;;;;95.20;43.90;;;;;;;;;;5077192;28;20043;-79
2023/03/23 08:45:43;;;;;;;92.47;44.70;;;;;;;;;;5117839;27;20522;-78
2023/03/23 08:48:09;;;;;;;92.53;45.65;;;;;;;;;;5116866;27;20099;-78
2023/03/23 08:50:41;;;;;;;90.55;43.60;;;;;;;;;;5116651;27;20030;-80
2023/03/23 08:53:09;;;;;;;87.25;42.53;;;;;;;;;;5104038;28;20073;-76
2023/03/23 08:55:35;;;;;;;84.55;41.92;;;;;;;;;;5120684;27;20035;-79
2023/03/23 08:58:03;;;;;;;85.22;40.90;;;;;;;;;;5119485;27;20075;-78
2023/03/23 09:00:29;;;;;;;80.70;40.30;;;;;;;;;;5118106;27;20023;-79
2023/03/23 09:02:56;;;;;;;83.38;42.35;;;;;;;;;;5114430;27;20030;-78
2023/03/23 09:05:24;;;;;;;85.05;41.80;;;;;;;;;;5110215;28;20028;-81
2023/03/23 09:07:58;;;;;;;82.07;40.60;;;;;;;;;;5116724;27;20065;-82
2023/03/23 09:10:30;;;;;;;78.70;39.95;;;;;;;;;;5111751;27;20457;-78
2023/03/23 09:12:56;;;;;;;70.82;38.88;;;;;;;;;;5110352;27;20034;-76
2023/03/23 09:15:22;;;;;;;76.38;38.53;;;;;;;;;;5110238;27;20027;-77
2023/03/23 09:17:51;;;;;;;86.60;42.35;;;;;;;;;;5113023;27;20042;-76
2023/03/23 09:20:21;;;;;;;78.65;41.05;;;;;;;;;;5111765;27;20035;-77
2023/03/23 09:22:52;;;;;;;85.90;41.10;;;;;;;;;;5112554;27;20137;-77
2023/03/23 09:25:21;;;;;;;83.07;40.03;;;;;;;;;;5114096;27;20187;-76
2023/03/23 09:27:53;;;;;;;87.55;43.90;;;;;;;;;;5110173;27;20762;-77
2023/03/23 09:30:19;;;;;;;86.60;42.90;;;;;;;;;;5113463;28;20023;-76
2023/03/23 09:32:47;;;;;;;84.88;44.95;;;;;;;;;;5095420;28;20039;-79
2023/03/23 09:35:14;;;;;;;84.72;41.10;;;;;;;;;;5109221;27;20410;-78
2023/03/23 09:37:40;;;;;;;93.82;48.28;;;;;;;;;;5112623;27;20031;-79
2023/03/23 09:40:07;;;;;;;105.30;47.95;;;;;;;;;;5119723;27;20042;-78
2023/03/23 09:42:51;;;;;;;95.38;44.45;;;;;;;;;;5147516;27;20129;-78
2023/03/23 09:45:36;;;;;;;105.63;48.53;;;;;;;;;;5114095;27;20246;-81
2023/03/23 09:48:26;;;;;;;90.40;45.55;;;;;;;;;;5108754;28;20069;-78
2023/03/23 09:51:16;;;;;;;92.97;46.38;;;;;;;;;;5123620;27;20028;-80
2023/03/23 09:53:43;;;;;;;100.10;45.43;;;;;;;;;;5115553;27;20039;-82
2023/03/23 09:56:17;;;;;;;104.38;47.25;;;;;;;;;;5094375;28;20285;-80
2023/03/23 09:59:07;;;;;;;102.65;46.10;;;;;;;;;;5119996;28;20039;-77
2023/03/23 10:02:07;;;;;;;114.68;55.10;;;;;;;;;;5103578;28;20047;-79
2023/03/23 10:04:47;;;;;;;101.65;48.05;;;;;;;;;;5093928;28;20115;-80
2023/03/23 10:07:23;;;;;;;93.30;44.43;;;;;;;;;;5128046;27;20069;-78
2023/03/23 10:09:53;;;;;;;91.05;44.40;;;;;;;;;;5110843;28;20028;-76
2023/03/23 10:12:36;;;;;;;92.10;44.88;;;;;;;;;;5094452;28;20659;-76
2023/03/23 10:15:23;;;;;;;92.25;43.97;;;;;;;;;;5108341;28;20050;-76
2023/03/23 10:18:40;;;;;;;99.43;44.45;;;;;;;;;;5109654;28;20043;-79
2023/03/23 10:21:09;;;;;;;93.22;44.33;;;;;;;;;;5118329;28;20479;-76
2023/03/23 10:23:44;;;;;;;96.47;44.83;;;;;;;;;;5122573;27;20023;-77
2023/03/23 10:26:24;;;;;;;92.22;43.75;;;;;;;;;;5110077;28;20585;-79
2023/03/23 10:28:52;;;;;;;93.70;43.90;;;;;;;;;;5115220;28;20039;-77
2023/03/23 10:31:41;;;;;;;99.65;45.85;;;;;;;;;;5114853;28;20456;-78
2023/03/23 10:34:23;;;;;;;96.30;44.38;;;;;;;;;;5142756;27;20030;-75
2023/03/23 10:37:01;;;;;;;92.97;44.65;;;;;;;;;;5113849;28;20032;-76
2023/03/23 10:39:37;;;;;;;92.97;43.50;;;;;;;;;;5112456;28;20043;-79
2023/03/23 10:42:06;;;;;;;94.70;42.58;;;;;;;;;;5117817;28;20027;-79
2023/03/23 10:44:33;;;;;;;100.38;46.63;;;;;;;;;;5110198;28;20028;-80
2023/03/23 10:46:59;;;;;;;84.00;42.90;;;;;;;;;;5096821;28;20039;-79
2023/03/23 10:49:39;;;;;;;86.03;40.90;;;;;;;;;;5113414;28;20028;-79
2023/03/23 10:52:14;;;;;;;84.72;40.95;;;;;;;;;;5108709;27;20032;-76
2023/03/23 10:54:50;;;;;;;80.43;42.75;;;;;;;;;;5107820;28;20101;-78
2023/03/23 10:57:26;;;;;;;83.45;42.63;;;;;;;;;;5112899;28;20415;-78
2023/03/23 11:00:00;;;;;;;86.47;40.65;;;;;;;;;;5107406;28;20040;-77
2023/03/23 11:02:27;;;;;;;85.85;42.28;;;;;;;;;;5112248;28;20024;-79
2023/03/23 11:05:13;;;;;;;95.80;44.05;;;;;;;;;;5111956;28;20430;-78
2023/03/23 11:07:39;;;;;;;89.63;44.20;;;;;;;;;;5097122;28;20031;-78
2023/03/23 11:10:18;;;;;;;93.40;42.13;;;;;;;;;;5111925;28;20403;-78
2023/03/23 11:12:46;;;;;;;90.07;42.03;;;;;;;;;;5113155;28;20034;-78
2023/03/23 11:15:23;;;;;;;83.40;40.38;;;;;;;;;;5113009;28;20023;-78
2023/03/23 11:17:59;;;;;;;88.80;42.60;;;;;;;;;;5113007;28;20032;-78
2023/03/23 11:20:26;;;;;;;82.53;38.33;;;;;;;;;;5112271;28;20468;-79
2023/03/23 11:22:52;;;;;;;90.55;40.63;;;;;;;;;;5113039;28;20031;-78
2023/03/23 11:25:17;;;;;;;88.68;41.25;;;;;;;;;;5111978;28;20042;-78
2023/03/23 11:27:43;;;;;;;84.20;40.47;;;;;;;;;;5114535;28;20039;-78
2023/03/23 11:30:27;;;;;;;82.38;37.33;;;;;;;;;;5113089;28;20027;-76
2023/03/23 11:32:52;;;;;;;78.60;37.92;;;;;;;;;;5112033;28;20027;-76
2023/03/23 11:35:27;;;;;;;81.70;39.42;;;;;;;;;;5093816;28;20046;-77
2023/03/23 11:37:54;;;;;;;85.50;39.75;;;;;;;;;;5104850;28;20083;-77
2023/03/23 11:40:22;;;;;;;78.20;37.90;;;;;;;;;;5109633;27;20039;-79
2023/03/23 11:42:50;;;;;;;75.97;37.22;;;;;;;;;;5107345;27;20093;-79
2023/03/23 11:45:32;;;;;;;72.15;35.33;;;;;;;;;;5133556;27;20587;-80
2023/03/23 11:48:16;;;;;;;75.70;36.65;;;;;;;;;;5107625;28;20099;-78
2023/03/23 11:50:47;;;;;;;73.25;35.78;;;;;;;;;;5105226;28;20118;-78
2023/03/23 11:53:20;;;;;;;65.82;32.97;;;;;;;;;;5102223;28;20028;-78
2023/03/23 11:55:52;;;;;;;72.47;33.83;;;;;;;;;;5103910;28;20034;-77
2023/03/23 11:58:19;;;;;;;71.40;34.72;;;;;;;;;;5109562;28;20126;-79
2023/03/23 12:01:18;;;;;;;73.20;33.50;;;;;;;;;;5075048;28;20046;-77
2023/03/23 12:04:09;;;;;;;68.53;35.17;;;;;;;;;;5082523;28;20085;-78
2023/03/23 12:07:12;;;;;;;62.47;30.10;;;;;;;;;;5088980;28;20035;-77
2023/03/23 12:09:39;;;;;;;67.35;33.90;;;;;;;;;;5104889;28;20051;-78
2023/03/23 12:12:10;;;;;;;68.80;32.78;;;;;;;;;;5108205;28;20032;-76
2023/03/23 12:14:56;;;;;;;61.50;31.02;;;;;;;;;;5104147;28;20023;-77
2023/03/23 12:18:00;;;;;;;66.07;30.45;;;;;;;;;;5101544;28;20040;-76
2023/03/23 12:20:46;;;;;;;67.88;31.13;;;;;;;;;;5094873;28;20035;-77
2023/03/23 12:23:27;;;;;;;56.05;29.20;;;;;;;;;;5074385;28;20044;-78
2023/03/23 12:26:18;;;;;;;60.80;30.15;;;;;;;;;;5104933;28;20092;-79
2023/03/23 12:29:22;;;;;;;68.35;30.30;;;;;;;;;;5111132;28;20019;-77
2023/03/23 12:32:06;;;;;;;53.80;28.10;;;;;;;;;;5076187;28;20056;-80
2023/03/23 12:34:31;;;;;;;65.78;29.55;;;;;;;;;;5110005;28;20040;-79
2023/03/23 12:37:16;;;;;;;62.10;30.80;;;;;;;;;;5108861;28;20113;-79
2023/03/23 12:40:01;;;;;;;60.90;29.15;;;;;;;;;;5109807;28;20039;-79
2023/03/23 12:42:48;;;;;;;63.67;28.83;;;;;;;;;;5109113;28;20027;-79
2023/03/23 12:45:23;;;;;;;62.05;29.50;;;;;;;;;;5109609;28;20056;-78
2023/03/23 12:47:55;;;;;;;62.50;29.75;;;;;;;;;;5110548;28;20567;-79
2023/03/23 12:50:37;;;;;;;61.00;29.50;;;;;;;;;;5093647;28;20038;-79
2023/03/23 12:53:14;;;;;;;60.90;28.63;;;;;;;;;;5092223;28;20098;-79
2023/03/23 12:56:08;;;;;;;56.08;26.83;;;;;;;;;;5108965;28;20338;-79
2023/03/23 12:58:36;;;;;;;58.53;27.38;;;;;;;;;;5094574;28;20024;-79
2023/03/23 13:01:09;;;;;;;51.47;24.30;;;;;;;;;;5093203;28;20027;-79
2023/03/23 13:03:47;;;;;;;55.65;26.42;;;;;;;;;;5113815;28;20059;-86
2023/03/23 13:06:19;;;;;;;58.40;27.10;;;;;;;;;;5115070;28;20040;-84
2023/03/23 13:08:49;;;;;;;52.13;24.95;;;;;;;;;;5099742;28;20028;-87
2023/03/23 13:11:46;;;;;;;52.22;24.83;;;;;;;;;;5099295;28;20027;-87
2023/03/23 13:14:48;;;;;;;65.88;27.40;;;;;;;;;;5105518;27;20147;-87
2023/03/23 13:17:32;;;;;;;54.33;26.17;;;;;;;;;;5115794;28;20038;-87
2023/03/23 13:20:18;;;;;;;52.25;24.17;;;;;;;;;;5115172;28;20020;-86
2023/03/23 13:22:56;;;;;;;48.85;24.70;;;;;;;;;;5114290;28;20067;-87
2023/03/23 13:25:51;;;;;;;57.55;26.85;;;;;;;;;;5114979;28;20066;-87
2023/03/23 13:28:22;;;;;;;59.95;25.52;;;;;;;;;;5113318;28;20035;-88
2023/03/23 13:31:19;;;;;;;55.55;27.67;;;;;;;;;;5131249;27;20106;-87
2023/03/23 13:33:49;;;;;;;55.67;25.38;;;;;;;;;;5113008;28;20044;-87
2023/03/23 13:36:15;;;;;;;59.97;25.52;;;;;;;;;;5131112;27;20400;-87
2023/03/23 13:38:47;;;;;;;55.92;25.95;;;;;;;;;;5131269;27;20045;-87
2023/03/23 13:41:13;;;;;;;51.95;25.52;;;;;;;;;;5131837;27;20036;-86
2023/03/23 13:43:41;;;;;;;51.92;24.35;;;;;;;;;;5131115;27;20066;-88
2023/03/23 13:46:24;;;;;;;51.38;25.58;;;;;;;;;;5130706;27;20047;-87
2023/03/23 13:49:02;;;;;;;48.42;24.02;;;;;;;;;;5132256;27;20436;-87
2023/03/23 13:51:31;;;;;;;49.92;24.65;;;;;;;;;;5096341;28;20040;-86
2023/03/23 13:54:15;;;;;;;47.20;23.38;;;;;;;;;;5113571;28;20524;-87
2023/03/23 13:56:57;;;;;;;50.42;24.60;;;;;;;;;;5114190;28;20067;-86
2023/03/23 13:59:26;;;;;;;50.15;24.25;;;;;;;;;;5133390;27;20038;-85
2023/03/23 14:01:51;;;;;;;54.80;24.20;;;;;;;;;;5115100;28;20027;-85
2023/03/23 14:04:17;;;;;;;50.10;24.73;;;;;;;;;;5101492;28;20039;-85
2023/03/23 14:06:44;;;;;;;56.70;23.98;;;;;;;;;;5098097;28;20438;-85
2023/03/23 14:09:14;;;;;;;49.15;24.55;;;;;;;;;;5079510;28;20371;-86
2023/03/23 14:12:10;;;;;;;51.47;24.52;;;;;;;;;;5113012;28;20434;-84
2023/03/23 14:14:57;;;;;;;53.55;23.60;;;;;;;;;;5113439;28;20031;-85
2023/03/23 14:17:25;;;;;;;56.25;23.38;;;;;;;;;;5111733;28;20119;-85
2023/03/23 14:19:55;;;;;;;44.20;23.23;;;;;;;;;;5131070;27;20023;-85
2023/03/23 14:22:33;;;;;;;49.40;22.35;;;;;;;;;;5119162;28;20062;-84
2023/03/23 14:25:12;;;;;;;60.80;24.20;;;;;;;;;;5152073;27;20039;-84
2023/03/23 14:27:38;;;;;;;53.92;23.63;;;;;;;;;;5103490;28;20452;-84
2023/03/23 14:30:06;;;;;;;50.72;24.08;;;;;;;;;;5100239;28;20067;-84
2023/03/23 14:32:33;;;;;;;54.33;24.75;;;;;;;;;;5117532;28;20024;-83
2023/03/23 14:35:00;;;;;;;53.20;24.30;;;;;;;;;;5134511;27;20030;-85
2023/03/23 14:37:26;;;;;;;53.30;26.05;;;;;;;;;;5128011;28;20012;-83